createdAt,value
2023-02-13T00:01:03.234Z,8.54
2023-02-13T00:03:31.153Z,8.47
2023-02-13T00:05:59.125Z,8.52
2023-02-13T00:08:27.021Z,8.40
2023-02-13T00:10:55.344Z,8.33
2023-02-13T00:13:23.488Z,8.17
2023-02-13T00:15:59.831Z,8.23
2023-02-13T00:18:29.101Z,8.12
2023-02-13T00:20:59.157Z,8.14
2023-02-13T00:23:27.449Z,8.08
2023-02-13T00:25:55.270Z,8.12
2023-02-13T00:28:23.704Z,8.19
2023-02-13T00:30:51.774Z,8.06
2023-02-13T00:33:20.825Z,8.03
2023-02-13T00:35:48.708Z,8.07
2023-02-13T00:38:16.595Z,8.09
2023-02-13T00:40:46.426Z,8.15
2023-02-13T00:43:14.342Z,8.08
2023-02-13T00:45:43.795Z,7.98
2023-02-13T00:48:11.696Z,7.99
2023-02-13T00:50:39.642Z,8.12
2023-02-13T00:53:07.761Z,7.99
2023-02-13T00:55:36.021Z,8.01
2023-02-13T00:58:03.977Z,7.92
2023-02-13T01:00:32.343Z,7.91
2023-02-13T01:03:00.437Z,7.81
2023-02-13T01:05:28.786Z,7.69
2023-02-13T01:07:56.744Z,7.65
2023-02-13T01:10:25.438Z,7.67
2023-02-13T01:12:53.480Z,7.70
2023-02-13T01:15:21.777Z,7.69
2023-02-13T01:17:49.830Z,7.62
2023-02-13T01:20:17.891Z,7.53
2023-02-13T01:22:46.147Z,7.55
2023-02-13T01:25:14.058Z,7.62
2023-02-13T01:27:42.000Z,7.52
2023-02-13T01:30:14.077Z,7.42
2023-02-13T01:32:43.473Z,7.41
2023-02-13T01:35:14.047Z,7.42
2023-02-13T01:37:42.718Z,7.43
2023-02-13T01:40:16.045Z,7.31
2023-02-13T01:42:44.173Z,7.28
2023-02-13T01:45:26.586Z,7.49
2023-02-13T01:48:00.303Z,7.28
2023-02-13T01:50:52.669Z,7.06
2023-02-13T01:53:24.787Z,7.22
2023-02-13T01:56:00.171Z,7.13
2023-02-13T01:58:32.825Z,7.16
2023-02-13T02:01:02.590Z,7.13
2023-02-13T02:03:35.074Z,7.10
2023-02-13T02:06:11.521Z,7.10
2023-02-13T02:08:39.595Z,7.22
2023-02-13T02:11:16.670Z,6.94
2023-02-13T02:13:46.724Z,6.79
2023-02-13T02:16:15.019Z,6.90
2023-02-13T02:18:43.016Z,6.99
2023-02-13T02:21:11.023Z,6.83
2023-02-13T02:24:13.918Z,6.77
2023-02-13T02:27:10.010Z,6.76
2023-02-13T02:29:50.447Z,6.68
2023-02-13T02:32:31.988Z,6.53
2023-02-13T02:35:12.988Z,6.61
2023-02-13T02:38:13.378Z,6.50
2023-02-13T02:41:05.852Z,6.49
2023-02-13T02:43:49.191Z,6.57
2023-02-13T02:46:24.198Z,6.57
2023-02-13T02:49:34.836Z,6.56
2023-02-13T02:52:08.463Z,6.65
2023-02-13T02:55:04.083Z,6.67
2023-02-13T02:57:57.067Z,6.48
2023-02-13T03:00:45.539Z,6.52
2023-02-13T03:03:41.924Z,6.41
2023-02-13T03:06:19.082Z,6.41
2023-02-13T03:09:19.214Z,6.60
2023-02-13T03:12:10.023Z,6.42
2023-02-13T03:14:38.226Z,6.30
2023-02-13T03:17:25.177Z,6.33
2023-02-13T03:20:20.608Z,6.52
2023-02-13T03:23:09.558Z,6.40
2023-02-13T03:25:44.290Z,6.37
2023-02-13T03:28:41.793Z,6.40
2023-02-13T03:31:12.568Z,6.26
2023-02-13T03:33:46.294Z,6.25
2023-02-13T03:36:52.016Z,6.25
2023-02-13T03:39:36.940Z,6.21
2023-02-13T03:42:13.291Z,6.22
2023-02-13T03:44:46.769Z,6.38
2023-02-13T03:47:15.162Z,6.30
2023-02-13T03:50:06.726Z,6.25
2023-02-13T03:52:38.264Z,6.10
2023-02-13T03:55:37.250Z,6.12
2023-02-13T03:58:31.591Z,6.16
2023-02-13T04:01:02.761Z,6.24
2023-02-13T04:04:04.433Z,6.20
2023-02-13T04:06:50.299Z,6.11
2023-02-13T04:09:18.787Z,6.14
2023-02-13T04:11:52.321Z,6.16
2023-02-13T04:14:35.014Z,6.07
2023-02-13T04:17:12.843Z,6.11
2023-02-13T04:19:41.250Z,6.06
2023-02-13T04:22:09.070Z,6.03
2023-02-13T04:24:36.920Z,6.15
2023-02-13T04:27:04.890Z,6.28
2023-02-13T04:29:32.609Z,6.07
2023-02-13T04:32:00.319Z,5.81
2023-02-13T04:34:28.022Z,5.73
2023-02-13T04:36:55.784Z,5.89
2023-02-13T04:39:23.433Z,6.05
2023-02-13T04:41:51.205Z,5.99
2023-02-13T04:44:18.970Z,5.79
2023-02-13T04:46:46.754Z,5.75
2023-02-13T04:49:14.644Z,5.75
2023-02-13T04:51:42.525Z,5.73
2023-02-13T04:54:11.633Z,5.70
2023-02-13T04:56:39.352Z,5.68
2023-02-13T04:59:07.074Z,5.70
2023-02-13T05:01:34.860Z,5.78
2023-02-13T05:04:02.740Z,5.78
2023-02-13T05:06:30.553Z,5.71
2023-02-13T05:08:58.273Z,5.74
2023-02-13T05:11:26.003Z,5.67
2023-02-13T05:13:53.743Z,5.59
2023-02-13T05:16:21.516Z,5.67
2023-02-13T05:18:49.694Z,5.71
2023-02-13T05:21:35.963Z,5.60
2023-02-13T05:24:03.757Z,5.57
2023-02-13T05:26:31.532Z,5.55
2023-02-13T05:29:17.655Z,5.69
2023-02-13T05:31:54.571Z,5.70
2023-02-13T05:34:24.847Z,5.70
2023-02-13T05:36:52.826Z,5.78
2023-02-13T05:39:21.331Z,5.61
2023-02-13T05:41:49.766Z,5.58
2023-02-13T05:44:17.777Z,5.51
2023-02-13T05:46:45.893Z,5.46
2023-02-13T05:49:15.500Z,5.48
2023-02-13T05:51:43.477Z,5.35
2023-02-13T05:54:11.240Z,5.45
2023-02-13T05:56:38.943Z,5.42
2023-02-13T05:59:06.643Z,5.16
2023-02-13T06:01:34.732Z,5.24
2023-02-13T06:04:03.949Z,5.34
2023-02-13T06:06:31.877Z,5.22
2023-02-13T06:08:59.570Z,4.98
2023-02-13T06:11:27.453Z,4.81
2023-02-13T06:13:55.158Z,4.83
2023-02-13T06:16:23.166Z,4.83
2023-02-13T06:18:50.913Z,4.82
2023-02-13T06:21:18.713Z,4.77
2023-02-13T06:23:46.510Z,4.72
2023-02-13T06:26:14.527Z,4.52
2023-02-13T06:28:42.329Z,4.49
2023-02-13T06:31:10.469Z,4.52
2023-02-13T06:33:38.411Z,4.34
2023-02-13T06:36:06.561Z,4.25
2023-02-13T06:38:34.282Z,4.31
2023-02-13T06:41:02.685Z,4.39
2023-02-13T06:43:30.937Z,4.40
2023-02-13T06:45:59.051Z,4.37
2023-02-13T06:48:27.133Z,4.47
2023-02-13T06:50:55.300Z,4.60
2023-02-13T06:53:25.180Z,4.50
2023-02-13T06:55:54.022Z,4.71
2023-02-13T06:58:24.148Z,4.68
2023-02-13T07:00:52.986Z,4.77
2023-02-13T07:03:21.439Z,4.97
2023-02-13T07:05:52.160Z,4.99
2023-02-13T07:08:20.147Z,4.93
2023-02-13T07:10:48.123Z,5.12
2023-02-13T07:13:16.264Z,5.27
2023-02-13T07:15:44.382Z,5.50
2023-02-13T07:18:12.403Z,5.44
2023-02-13T07:20:40.447Z,5.56
2023-02-13T07:23:08.481Z,5.53
2023-02-13T07:25:36.519Z,5.58
2023-02-13T07:28:06.156Z,5.75
2023-02-13T07:30:35.235Z,5.87
2023-02-13T07:33:05.224Z,5.95
2023-02-13T07:35:33.897Z,6.11
2023-02-13T07:38:02.245Z,6.17
2023-02-13T07:40:30.334Z,6.30
2023-02-13T07:43:01.258Z,6.53
2023-02-13T07:45:29.235Z,6.55
2023-02-13T07:47:57.649Z,6.49
2023-02-13T07:50:25.752Z,6.61
2023-02-13T07:52:59.693Z,6.74
2023-02-13T07:55:28.978Z,6.89
2023-02-13T07:57:57.389Z,7.81
2023-02-13T08:00:25.454Z,9.57
2023-02-13T08:02:53.338Z,11.60
2023-02-13T08:05:21.185Z,13.58
2023-02-13T08:07:49.088Z,15.23
2023-02-13T08:10:35.350Z,16.65
2023-02-13T08:13:03.884Z,18.10
2023-02-13T08:15:31.839Z,18.80
2023-02-13T08:17:59.948Z,19.50
2023-02-13T08:20:28.048Z,19.59
2023-02-13T08:23:03.426Z,19.37
2023-02-13T08:25:31.395Z,19.27
2023-02-13T08:28:00.794Z,19.13
2023-02-13T08:30:29.321Z,18.22
2023-02-13T08:32:57.306Z,16.13
2023-02-13T08:35:27.606Z,15.49
2023-02-13T08:37:56.168Z,14.05
2023-02-13T08:40:25.451Z,12.89
2023-02-13T08:43:01.310Z,11.77
2023-02-13T08:45:30.059Z,11.58
2023-02-13T08:48:01.456Z,11.62
2023-02-13T08:50:29.544Z,11.44
2023-02-13T08:52:58.619Z,11.37
2023-02-13T08:55:28.494Z,11.85
2023-02-13T08:57:56.485Z,11.83
2023-02-13T09:00:24.511Z,11.85
2023-02-13T09:02:52.543Z,11.66
2023-02-13T09:05:20.739Z,11.94
2023-02-13T09:07:48.686Z,12.04
2023-02-13T09:10:16.590Z,11.98
2023-02-13T09:12:44.517Z,11.97
2023-02-13T09:15:12.485Z,12.04
2023-02-13T09:17:40.439Z,12.18
2023-02-13T09:20:08.941Z,12.19
2023-02-13T09:22:36.871Z,12.16
2023-02-13T09:25:05.116Z,12.55
2023-02-13T09:27:34.939Z,12.87
2023-02-13T09:30:03.008Z,13.00
2023-02-13T09:32:31.320Z,13.00
2023-02-13T09:34:59.370Z,13.00
2023-02-13T09:37:27.898Z,13.02
2023-02-13T09:39:55.884Z,13.46
2023-02-13T09:42:29.246Z,13.63
2023-02-13T09:45:03.782Z,13.74
2023-02-13T09:47:34.239Z,13.75
2023-02-13T09:50:25.713Z,13.76
2023-02-13T09:52:55.930Z,14.09
2023-02-13T09:55:30.121Z,14.17
2023-02-13T09:58:00.912Z,14.47
2023-02-13T10:00:40.437Z,14.58
2023-02-13T10:03:29.605Z,14.82
2023-02-13T10:06:29.759Z,14.91
2023-02-13T10:09:00.219Z,14.97
2023-02-13T10:11:48.892Z,14.99
2023-02-13T10:14:27.658Z,15.61
2023-02-13T10:17:11.952Z,15.65
2023-02-13T10:19:57.559Z,16.03
2023-02-13T10:22:36.599Z,16.42
2023-02-13T10:25:16.489Z,16.65
2023-02-13T10:27:50.009Z,16.61
2023-02-13T10:30:32.748Z,17.28
2023-02-13T10:33:20.044Z,16.77
2023-02-13T10:36:12.861Z,17.49
2023-02-13T10:38:45.550Z,17.84
2023-02-13T10:41:35.545Z,18.40
2023-02-13T10:44:21.994Z,18.97
2023-02-13T10:47:21.912Z,18.80
2023-02-13T10:49:58.400Z,19.19
2023-02-13T10:52:32.730Z,20.39
2023-02-13T10:55:12.210Z,21.23
2023-02-13T10:57:55.002Z,21.80
2023-02-13T11:00:47.993Z,22.76
2023-02-13T11:03:30.148Z,23.45
2023-02-13T11:06:01.928Z,24.26
2023-02-13T11:08:45.990Z,25.69
2023-02-13T11:11:34.127Z,25.51
2023-02-13T11:14:12.207Z,25.86
2023-02-13T11:17:02.453Z,25.57
2023-02-13T11:19:47.963Z,24.88
2023-02-13T11:22:32.551Z,25.62
2023-02-13T11:25:06.548Z,25.20
2023-02-13T11:27:37.883Z,25.49
2023-02-13T11:30:35.589Z,25.92
2023-02-13T11:33:22.505Z,25.34
2023-02-13T11:36:03.822Z,26.91
2023-02-13T11:38:31.704Z,27.86
2023-02-13T11:41:19.717Z,27.55
2023-02-13T11:44:01.567Z,27.30
2023-02-13T11:46:31.597Z,27.55
2023-02-13T11:49:07.771Z,28.07
2023-02-13T11:51:46.402Z,28.71
2023-02-13T11:54:37.046Z,28.83
2023-02-13T11:57:30.006Z,28.26
2023-02-13T11:59:59.477Z,28.25
2023-02-13T12:02:50.298Z,28.78
2023-02-13T12:05:22.311Z,27.96
2023-02-13T12:07:50.708Z,28.12
2023-02-13T12:10:23.586Z,28.44
2023-02-13T12:13:17.572Z,29.01
2023-02-13T12:15:49.674Z,29.35
2023-02-13T12:18:49.584Z,29.24
2023-02-13T12:21:35.913Z,27.45
2023-02-13T12:24:27.760Z,27.17
2023-02-13T12:27:07.759Z,27.63
2023-02-13T12:29:47.369Z,26.93
2023-02-13T12:32:20.272Z,27.68
2023-02-13T12:35:14.981Z,28.86
2023-02-13T12:37:55.080Z,27.49
2023-02-13T12:40:43.941Z,29.11
2023-02-13T12:43:17.668Z,28.80
2023-02-13T12:46:06.762Z,29.32
2023-02-13T12:49:02.339Z,28.66
2023-02-13T12:52:07.596Z,28.71
2023-02-13T12:54:38.397Z,28.36
2023-02-13T12:57:30.417Z,28.59
2023-02-13T13:00:11.083Z,29.35
2023-02-13T13:02:54.030Z,29.99
2023-02-13T13:05:43.388Z,29.36
2023-02-13T13:08:50.540Z,29.10
2023-02-13T13:11:40.459Z,28.32
2023-02-13T13:14:21.150Z,29.10
2023-02-13T13:16:57.877Z,29.65
2023-02-13T13:19:34.710Z,29.44
2023-02-13T13:22:09.302Z,29.74
2023-02-13T13:25:06.160Z,29.26
2023-02-13T13:27:39.244Z,28.84
2023-02-13T13:30:20.493Z,29.05
2023-02-13T13:33:08.689Z,29.79
2023-02-13T13:35:41.720Z,30.65
2023-02-13T13:38:37.134Z,30.48
2023-02-13T13:41:18.342Z,30.12
2023-02-13T13:44:04.265Z,30.03
2023-02-13T13:46:53.491Z,29.75
2023-02-13T13:49:24.447Z,30.86
2023-02-13T13:51:52.244Z,30.73
2023-02-13T13:54:25.843Z,29.35
2023-02-13T13:56:53.617Z,29.65
2023-02-13T13:59:49.159Z,29.36
2023-02-13T14:02:19.875Z,29.32
2023-02-13T14:05:12.591Z,29.87
2023-02-13T14:07:42.258Z,29.85
2023-02-13T14:10:32.792Z,30.00
2023-02-13T14:13:03.347Z,28.67
2023-02-13T14:15:39.852Z,29.41
2023-02-13T14:18:19.080Z,29.82
2023-02-13T14:20:50.832Z,29.60
2023-02-13T14:23:18.679Z,29.24
2023-02-13T14:25:47.853Z,28.98
2023-02-13T14:28:27.625Z,28.57
2023-02-13T14:31:07.677Z,29.49
2023-02-13T14:33:35.821Z,28.03
2023-02-13T14:36:09.539Z,28.34
2023-02-13T14:38:37.658Z,26.98
2023-02-13T14:41:07.514Z,26.81
2023-02-13T14:43:39.531Z,26.98
2023-02-13T14:46:12.144Z,26.71
2023-02-13T14:48:43.437Z,25.49
2023-02-13T14:51:28.904Z,26.23
2023-02-13T14:54:20.439Z,26.63
2023-02-13T14:56:50.852Z,26.28
2023-02-13T14:59:24.270Z,25.21
2023-02-13T15:02:09.633Z,25.24
2023-02-13T15:04:42.481Z,24.48
2023-02-13T15:07:21.650Z,24.24
2023-02-13T15:09:56.428Z,24.42
2023-02-13T15:12:27.144Z,24.15
2023-02-13T15:14:54.982Z,23.70
2023-02-13T15:17:38.622Z,24.01
2023-02-13T15:20:25.106Z,23.49
2023-02-13T15:22:53.870Z,23.15
2023-02-13T15:25:39.299Z,22.22
2023-02-13T15:28:15.520Z,21.76
2023-02-13T15:31:04.375Z,21.88
2023-02-13T15:33:47.375Z,21.82
2023-02-13T15:36:27.359Z,21.35
2023-02-13T15:39:09.712Z,20.96
2023-02-13T15:41:44.907Z,20.63
2023-02-13T15:44:32.462Z,19.92
2023-02-13T15:47:18.178Z,20.05
2023-02-13T15:49:48.047Z,19.73
2023-02-13T15:52:25.676Z,19.27
2023-02-13T15:54:55.552Z,18.72
2023-02-13T15:57:25.794Z,18.63
2023-02-13T15:59:55.618Z,18.30
2023-02-13T16:02:34.244Z,17.77
2023-02-13T16:05:02.954Z,17.46
2023-02-13T16:07:30.792Z,17.54
2023-02-13T16:10:37.520Z,17.37
2023-02-13T16:13:08.007Z,17.21
2023-02-13T16:15:37.667Z,16.83
2023-02-13T16:18:12.031Z,16.75
2023-02-13T16:20:39.901Z,16.99
2023-02-13T16:23:17.264Z,16.54
2023-02-13T16:25:47.708Z,16.05
2023-02-13T16:28:25.829Z,15.99
2023-02-13T16:30:59.533Z,16.14
2023-02-13T16:33:34.112Z,16.11
2023-02-13T16:36:30.860Z,15.80
2023-02-13T16:39:10.545Z,15.76
2023-02-13T16:41:38.292Z,15.50
2023-02-13T16:44:06.345Z,15.35
2023-02-13T16:46:42.181Z,15.24
2023-02-13T16:49:09.864Z,14.91
2023-02-13T16:51:42.594Z,15.23
2023-02-13T16:54:28.173Z,14.76
2023-02-13T16:57:14.256Z,14.90
2023-02-13T16:59:47.877Z,15.12
2023-02-13T17:02:27.611Z,15.36
2023-02-13T17:05:16.774Z,15.18
2023-02-13T17:07:51.166Z,14.84
2023-02-13T17:10:23.705Z,14.54
2023-02-13T17:12:51.752Z,14.59
2023-02-13T17:15:25.592Z,14.43
2023-02-13T17:17:54.090Z,14.18
2023-02-13T17:20:29.303Z,13.96
2023-02-13T17:22:59.362Z,13.58
2023-02-13T17:25:34.204Z,13.56
2023-02-13T17:28:15.386Z,13.50
2023-02-13T17:30:44.927Z,13.35
2023-02-13T17:33:16.812Z,13.14
2023-02-13T17:35:44.635Z,12.87
2023-02-13T17:38:12.383Z,13.06
2023-02-13T17:40:42.661Z,13.36
2023-02-13T17:43:12.940Z,13.62
2023-02-13T17:45:41.183Z,13.84
2023-02-13T17:48:09.424Z,13.70
2023-02-13T17:50:38.338Z,13.67
2023-02-13T17:53:22.259Z,13.69
2023-02-13T17:55:50.419Z,13.58
2023-02-13T17:58:18.197Z,13.42
2023-02-13T18:00:46.108Z,12.86
2023-02-13T18:03:14.007Z,12.99
2023-02-13T18:05:42.297Z,13.16
2023-02-13T18:08:10.249Z,13.30
2023-02-13T18:10:39.742Z,13.28
2023-02-13T18:13:07.858Z,12.73
2023-02-13T18:15:40.676Z,12.46
2023-02-13T18:18:08.992Z,12.29
2023-02-13T18:20:36.937Z,12.23
2023-02-13T18:23:06.667Z,12.01
2023-02-13T18:25:34.978Z,11.97
2023-02-13T18:28:03.733Z,12.03
2023-02-13T18:30:31.698Z,11.81
2023-02-13T18:32:59.535Z,11.70
2023-02-13T18:35:27.558Z,11.70
2023-02-13T18:37:55.297Z,11.60
2023-02-13T18:40:23.112Z,11.48
2023-02-13T18:42:52.486Z,11.52
2023-02-13T18:45:20.302Z,11.48
2023-02-13T18:47:48.849Z,11.41
2023-02-13T18:50:16.856Z,11.35
2023-02-13T18:52:44.897Z,11.42
2023-02-13T18:55:12.846Z,11.40
2023-02-13T18:57:43.727Z,11.33
2023-02-13T19:00:14.435Z,11.23
2023-02-13T19:02:42.390Z,11.20
2023-02-13T19:05:10.320Z,11.06
2023-02-13T19:07:38.283Z,10.98
2023-02-13T19:10:07.256Z,10.87
2023-02-13T19:12:35.380Z,10.92
2023-02-13T19:15:03.971Z,10.99
2023-02-13T19:17:32.061Z,10.87
2023-02-13T19:20:00.053Z,10.83
2023-02-13T19:22:28.006Z,10.75
2023-02-13T19:24:56.100Z,10.68
2023-02-13T19:27:24.330Z,10.54
2023-02-13T19:29:52.290Z,10.62
2023-02-13T19:32:20.194Z,10.54
2023-02-13T19:34:48.291Z,10.39
2023-02-13T19:37:16.325Z,10.24
2023-02-13T19:39:44.212Z,10.25
2023-02-13T19:42:12.123Z,10.27
2023-02-13T19:44:40.030Z,10.07
2023-02-13T19:47:07.855Z,10.00
2023-02-13T19:49:35.804Z,9.99
2023-02-13T19:52:04.009Z,10.04
2023-02-13T19:54:32.404Z,10.08
2023-02-13T19:57:05.292Z,9.98
2023-02-13T19:59:34.588Z,9.82
2023-02-13T20:02:02.593Z,9.76
2023-02-13T20:04:32.385Z,9.61
2023-02-13T20:07:00.463Z,9.63
2023-02-13T20:09:28.412Z,9.68
2023-02-13T20:11:56.408Z,9.75
2023-02-13T20:14:24.479Z,9.67
2023-02-13T20:16:52.557Z,9.55
2023-02-13T20:19:20.686Z,9.63
2023-02-13T20:21:48.929Z,9.66
2023-02-13T20:24:17.259Z,9.57
2023-02-13T20:26:45.652Z,9.46
2023-02-13T20:29:13.700Z,9.55
2023-02-13T20:31:42.020Z,9.39
2023-02-13T20:34:11.114Z,9.37
2023-02-13T20:36:39.622Z,9.28
2023-02-13T20:39:08.624Z,9.15
2023-02-13T20:41:38.430Z,9.05
2023-02-13T20:44:12.315Z,9.04
2023-02-13T20:46:41.564Z,9.09
2023-02-13T20:49:13.972Z,8.92
2023-02-13T20:51:43.504Z,8.88
2023-02-13T20:54:12.952Z,8.73
2023-02-13T20:56:41.758Z,8.71
2023-02-13T20:59:11.284Z,8.79
2023-02-13T21:01:44.302Z,8.75
2023-02-13T21:04:15.032Z,9.04
2023-02-13T21:06:44.831Z,8.86
2023-02-13T21:09:15.011Z,8.75
2023-02-13T21:11:44.741Z,8.53
2023-02-13T21:14:14.588Z,8.48
2023-02-13T21:16:44.181Z,8.62
2023-02-13T21:19:22.015Z,8.69
2023-02-13T21:21:51.117Z,8.66
2023-02-13T21:24:22.367Z,8.59
2023-02-13T21:26:53.524Z,8.44
2023-02-13T21:29:21.954Z,8.60
2023-02-13T21:31:51.089Z,8.45
2023-02-13T21:34:19.362Z,8.41
2023-02-13T21:36:48.768Z,8.43
2023-02-13T21:39:16.813Z,8.27
2023-02-13T21:41:46.785Z,8.52
2023-02-13T21:44:17.015Z,8.48
2023-02-13T21:46:46.196Z,8.46
2023-02-13T21:49:17.549Z,8.40
2023-02-13T21:51:45.924Z,8.34
2023-02-13T21:54:14.762Z,8.22
2023-02-13T21:56:44.110Z,8.35
2023-02-13T21:59:16.752Z,8.42
2023-02-13T22:01:46.836Z,8.16
2023-02-13T22:04:14.893Z,8.00
2023-02-13T22:06:42.841Z,8.05
2023-02-13T22:09:14.165Z,7.92
2023-02-13T22:11:42.556Z,8.11
2023-02-13T22:14:17.272Z,7.99
2023-02-13T22:16:46.479Z,8.04
2023-02-13T22:19:16.311Z,8.10
2023-02-13T22:21:45.287Z,8.15
2023-02-13T22:24:13.341Z,7.83
2023-02-13T22:26:45.414Z,7.78
2023-02-13T22:29:16.001Z,7.81
2023-02-13T22:31:44.282Z,7.80
2023-02-13T22:34:13.643Z,7.87
2023-02-13T22:36:42.988Z,7.85
2023-02-13T22:39:12.107Z,7.72
2023-02-13T22:41:40.098Z,7.57
2023-02-13T22:44:08.032Z,7.56
2023-02-13T22:46:36.033Z,7.60
2023-02-13T22:49:04.374Z,7.54
2023-02-13T22:51:34.461Z,7.66
2023-02-13T22:54:02.875Z,7.79
2023-02-13T22:56:31.790Z,7.84
2023-02-13T22:59:00.306Z,7.66
2023-02-13T23:01:29.117Z,7.74
2023-02-13T23:03:57.492Z,7.67
2023-02-13T23:06:25.979Z,7.52
2023-02-13T23:08:54.004Z,7.42
2023-02-13T23:11:45.854Z,7.50
2023-02-13T23:14:14.427Z,7.48
2023-02-13T23:17:01.931Z,7.54
2023-02-13T23:19:30.868Z,7.48
2023-02-13T23:21:59.806Z,7.43
2023-02-13T23:24:29.572Z,7.49
2023-02-13T23:26:58.881Z,7.58
2023-02-13T23:29:27.165Z,7.49
2023-02-13T23:31:55.367Z,7.56
2023-02-13T23:34:23.415Z,7.46
2023-02-13T23:36:51.249Z,7.45
2023-02-13T23:39:20.193Z,7.25
2023-02-13T23:41:48.228Z,7.24
2023-02-13T23:44:16.037Z,7.15
2023-02-13T23:46:44.034Z,7.15
2023-02-13T23:49:11.972Z,6.99
2023-02-13T23:51:40.050Z,6.99
2023-02-13T23:54:08.136Z,7.06
2023-02-13T23:56:36.102Z,7.17
2023-02-13T23:59:04.146Z,7.03
